KPHX/PHX METAR and TAF weather

Enter ICAO airport designator
Station Type Date Time Source
KPHX METAR 2018/12/11 19:51 UTC NOAA

KPHX 111951Z 08005KT 10SM FEW180 SCT210 BKN250 22/01 A2999 RMK AO2 SLP145 T02170011


Station Type Date Time Source
KPHX Decoded METAR 2018/12/11 19:51 UTC NOAA

Phoenix, Phoenix Sky Harbor International Airport, AZ, United States (KPHX) 33-26-03N 112-03-04W 336M
Dec 11, 2018 - 02:51 PM EST / 2018.12.11 1951 UTC
Wind: from the E (080 degrees) at 6 MPH (5 KT):0
Visibility: 10 mile(s):0
Sky conditions: mostly cloudy
Temperature: 71.1 F (21.7 C)
Dew Point: 34.0 F (1.1 C)
Relative Humidity: 25%
Pressure (altimeter): 29.99 in. Hg (1015 hPa)
ob: KPHX 111951Z 08005KT 10SM FEW180 SCT210 BKN250 22/01 A2999 RMK AO2 SLP145 T02170011
cycle: 20

Station Type Date Time Source
KPHX TAF 2018/12/11 18:22 UTC NOAA

TAF KPHX 111720Z 1118/1224 10006KT P6SM SCT150 OVC200
FM120000 27004KT P6SM SCT150 OVC200
FM120700 11004KT P6SM FEW250


Example: see airport list